Highlands, TX

7:31 PM CDT on October 20, 2014 (GMT -0500)
Banana Bend | Change Station
CLOSE
Current Station
Personal Weather Station
Location: Highlands, TX
Elevation: 23 ft
Nearby Weather Stations

Elev 23 ft 29.85 °N, 95.09 °W | Updated 1 minute ago

Partly Cloudy
Partly Cloudy
75.0 °F
Feels Like 77 °F
N
0.0
Wind Variable Wind from ENE
Gusts 0.0 mph

Today
High -- | Low -- °F
--% Chance of Precip.
Yesterday
High -- | Low -- °F
Precip. -- in
7:25 AM 6:44 PM
Waning Crescent, 8% visible
Pressure 30.00 in
Visibility 10.0 miles
Clouds Few 3000 ft
Scattered Clouds 25000 ft
Heat Index 77 °F
Dew Point 62 °F
Humidity 64%
Rainfall 0.00 in
Snow Depth Not available.
UV 0 out of 12
Pollen 6.30 out of 12
PM2.5 Moderate
Flu Activity Sporadic
METAR KEFD 202250Z 09004KT 10SM FEW030 SCT250 26/16 A3000

More Conditions Fewer Conditions

Pressure 30.00 in
Visibility 10.0 miles
Clouds Few 3000 ft
Scattered Clouds 25000 ft
Heat Index 77 °F
Dew Point 62 °F
Humidity 64%
Rainfall 0.00 in
Snow Depth Not available.
UV 0 out of 12
Pollen 6.30 out of 12
PM2.5 Moderate
Flu Activity Sporadic
METAR KEFD 202250Z 09004KT 10SM FEW030 SCT250 26/16 A3000

More Conditions Fewer Conditions

10-Day Weather Forecast

Almanac

Astronomy

Oct. 20, 2014 Rise Set
Actual Time 7:25 AM CDT 6:44 PM CDT
Civil Twilight 7:01 AM CDT 7:08 PM CDT
Nautical Twilight 6:33 AM CDT 7:36 PM CDT
Astronomical Twilight 6:05 AM CDT 8:03 PM CDT
Moon 4:27 AM CDT (10/20) 4:55 PM CDT (10/20)
Length of Visible Light 12h 07m
Length of Day
11h 18m
Tomorrow will be 1m 41s shorter.
Waning Crescent, 8% of the Moon is Illuminated
Today
Waning Crescent
Oct 23
New
Oct 30
First Quarter
Nov 6
Full
Nov 14
Last Quarter

Today's Extremes

State Highs State Lows

Community

WunderPhotos

Upload Photos

1,763,566 photos uploaded!

Nearby

Air Quality

  Air Quality AQ Index Pollutant
Yesterday Moderate
OZONE
Yesterday Moderate
PM2.5
Current Moderate
PM2.5
Monday Moderate
OZONE
Monday Good
PM10
Tuesday Moderate
OZONE
Tuesday Good
PM10
Wednesday Moderate
OZONE
Wednesday Good
PM10
Thursday Moderate
OZONE
Thursday Good
PM10

Snow Depth

Station Depth Elevation
No new snow has been reported.

Earthquake Activity

City Distance Mag. Time & Date
No recent earthquake activity has been reported nearby.
Minimum magnitude displayed is 2.5.

Coastal Water Temperatures

Place Temperature
Eagle Point, TX 77.0 °F
USCG Freeport, TX 78.1 °F
Galveston Pier TX 79.0 °F
Galveston Bay (North Jetty), TX 79.0 °F
Rollover Pass, TX 78.1 °F

Nearby Weather Stations